Orlando Sanford International Airport
KSFB : now visible

Airfield :











YOU CAN JOIN US ON...

 
LOGIN :

Register | Disclaimer

   EN    FR    IT 

 









Legend :    VFR   Marginal VFR   IFR   Intensive IFR   Very Intensive IFR
Visi :
Ceiling :
>= 8 km
>= 3000ft
5 to 8 km
1000 to 3000 ft
1500m to 5 km
500 to 1000 ft
800 to 1500m
200 to 500 ft
< 800m
< 200 ft
Symbols :   Thunderstorms  Fog  Heavy snow  Heavy precipitations  Wind > 20 kt






- Airport Elevation : 55 ft
- IATA code : SFB


KSFB - Orlando Sanford International

CURRENT METAR :
  • 112130Z 15005KT 10SM BKN033 26/21 A3000 RMK AO2 LTG DSNT NE-S RAE2058 P0000 T02610211

EXPIRED METARs :
  • 112112Z 13010KT 10SM VCTS SCT030 SCT040 BKN047 27/21 A3002 RMK AO2 LTG DSNT ALQDS RAE2058 P0000 T02720211
  • 112053Z 24005KT 10SM VCTS -RA FEW028 SCT043 BKN055 27/21 A3001 RMK AO2 LTG DSNT NE-S RAB27 SLP160 P0000 60000 T02670206 55002
  • 112003Z 01008KT 10SM VCTS CLR 30/21 A2999 RMK AO2 LTG DSNT ALQDS T03000206
  • 111953Z 02008KT 10SM CLR 30/21 A2997 RMK AO2 LTG DSNT ALQDS SLP148 T03000206
  • 111853Z 32005KT 10SM VCTS CLR 34/21 A3000 RMK AO2 LTG DSNT ALQDS SLP157 T03440211
  • 111837Z 34007KT 10SM VCTS FEW049 34/22 A3001 RMK AO2 LTG DSNT ALQDS T03440217

TAF KSFB
Valid from the 11 at 18:00 until the 12 at 18:00 UTC


111724Z 1118/1218 VRB05KT P6SM VCSH SCT035 SCT200 BKN250
FM111900 33007KT P6SM VCTS SCT050CB BKN200
TEMPO 1120/1123 3SM TSRA BKN025CB OVC035
FM120000 18006KT P6SM VCSH SCT040 BKN080 BKN200
FM120300 VRB03KT P6SM FEW030 BKN250
FM121500 22004KT P6SM SCT030 SCT250
KZJX FIR / North America



MET'MAP, your aeronautical weather chart ! - Copyright ORBIFLY December 2007 - Disclaimer

ORBIFLY MET'MAP TEAM :

Programming & Development : Alexandra Zaïnal
Concept & original design : Baudouin d'Aumeries
Assistance for programming : Marc-Olivier Méhu
Technical & hardware support : Manuel Goepfert

Contact : metmap@orbifly.com




SOURCES & CREDITS :

   NOAA       Earth
Advisory